sensor_id;sensor_type;location;lat;lon;timestamp;P1;durP1;ratioP1;P2;durP2;ratioP2
55776;SDS011;54079;44.540;18.784;2022-07-04T00:00:27;6.93;;;5.35;;
55776;SDS011;54079;44.540;18.784;2022-07-04T00:02:53;6.18;;;5.70;;
55776;SDS011;54079;44.540;18.784;2022-07-04T00:05:19;5.88;;;5.00;;
55776;SDS011;54079;44.540;18.784;2022-07-04T00:07:48;6.63;;;5.50;;
55776;SDS011;54079;44.540;18.784;2022-07-04T00:10:16;5.78;;;5.15;;
55776;SDS011;54079;44.540;18.784;2022-07-04T00:12:43;5.80;;;5.18;;
55776;SDS011;54079;44.540;18.784;2022-07-04T00:15:10;5.43;;;4.85;;
55776;SDS011;54079;44.540;18.784;2022-07-04T00:17:37;5.72;;;4.97;;
55776;SDS011;54079;44.540;18.784;2022-07-04T00:20:05;5.00;;;4.70;;
55776;SDS011;54079;44.540;18.784;2022-07-04T00:22:32;6.38;;;5.10;;
55776;SDS011;54079;44.540;18.784;2022-07-04T00:24:58;5.30;;;4.57;;
55776;SDS011;54079;44.540;18.784;2022-07-04T00:27:24;5.80;;;5.30;;
55776;SDS011;54079;44.540;18.784;2022-07-04T00:29:50;4.28;;;3.92;;
55776;SDS011;54079;44.540;18.784;2022-07-04T00:32:16;5.22;;;4.68;;
55776;SDS011;54079;44.540;18.784;2022-07-04T00:34:42;8.80;;;5.72;;
55776;SDS011;54079;44.540;18.784;2022-07-04T00:37:09;5.18;;;4.78;;
55776;SDS011;54079;44.540;18.784;2022-07-04T00:39:35;4.78;;;4.40;;
55776;SDS011;54079;44.540;18.784;2022-07-04T00:42:01;5.18;;;4.78;;
55776;SDS011;54079;44.540;18.784;2022-07-04T00:44:27;6.55;;;5.25;;
55776;SDS011;54079;44.540;18.784;2022-07-04T00:46:54;5.70;;;5.20;;
55776;SDS011;54079;44.540;18.784;2022-07-04T00:49:20;5.80;;;5.10;;
55776;SDS011;54079;44.540;18.784;2022-07-04T00:51:46;5.68;;;5.13;;
55776;SDS011;54079;44.540;18.784;2022-07-04T00:54:14;6.40;;;4.85;;
55776;SDS011;54079;44.540;18.784;2022-07-04T00:56:43;5.85;;;5.35;;
55776;SDS011;54079;44.540;18.784;2022-07-04T00:59:10;5.47;;;4.97;;
55776;SDS011;54079;44.540;18.784;2022-07-04T01:01:36;5.57;;;5.18;;
55776;SDS011;54079;44.540;18.784;2022-07-04T01:04:03;8.20;;;5.32;;
55776;SDS011;54079;44.540;18.784;2022-07-04T01:06:30;6.90;;;5.28;;
55776;SDS011;54079;44.540;18.784;2022-07-04T01:08:57;4.55;;;4.15;;
55776;SDS011;54079;44.540;18.784;2022-07-04T01:11:24;5.03;;;4.65;;
55776;SDS011;54079;44.540;18.784;2022-07-04T01:13:50;4.90;;;4.50;;
55776;SDS011;54079;44.540;18.784;2022-07-04T01:16:15;5.05;;;4.55;;
55776;SDS011;54079;44.540;18.784;2022-07-04T01:18:42;4.97;;;4.47;;
55776;SDS011;54079;44.540;18.784;2022-07-04T01:21:07;5.43;;;4.93;;
55776;SDS011;54079;44.540;18.784;2022-07-04T01:23:37;5.75;;;5.25;;
55776;SDS011;54079;44.540;18.784;2022-07-04T01:26:04;5.25;;;4.75;;
55776;SDS011;54079;44.540;18.784;2022-07-04T01:28:30;5.65;;;5.15;;
55776;SDS011;54079;44.540;18.784;2022-07-04T01:30:57;6.00;;;5.60;;
55776;SDS011;54079;44.540;18.784;2022-07-04T01:33:23;5.93;;;5.53;;
55776;SDS011;54079;44.540;18.784;2022-07-04T01:35:49;5.80;;;5.30;;
55776;SDS011;54079;44.540;18.784;2022-07-04T01:38:15;6.88;;;5.85;;
55776;SDS011;54079;44.540;18.784;2022-07-04T01:40:41;6.97;;;6.10;;
55776;SDS011;54079;44.540;18.784;2022-07-04T01:43:07;6.13;;;5.53;;
55776;SDS011;54079;44.540;18.784;2022-07-04T01:45:33;6.78;;;6.10;;
55776;SDS011;54079;44.540;18.784;2022-07-04T01:48:03;7.32;;;6.70;;
55776;SDS011;54079;44.540;18.784;2022-07-04T01:50:30;6.30;;;5.80;;
55776;SDS011;54079;44.540;18.784;2022-07-04T01:52:56;5.25;;;4.82;;
55776;SDS011;54079;44.540;18.784;2022-07-04T01:55:22;6.25;;;5.63;;
55776;SDS011;54079;44.540;18.784;2022-07-04T01:57:48;5.75;;;5.28;;
55776;SDS011;54079;44.540;18.784;2022-07-04T02:00:14;6.28;;;5.68;;
55776;SDS011;54079;44.540;18.784;2022-07-04T02:02:58;7.65;;;5.78;;
55776;SDS011;54079;44.540;18.784;2022-07-04T02:05:24;6.95;;;6.18;;
55776;SDS011;54079;44.540;18.784;2022-07-04T02:07:50;6.43;;;5.93;;
55776;SDS011;54079;44.540;18.784;2022-07-04T02:10:16;6.88;;;6.15;;
55776;SDS011;54079;44.540;18.784;2022-07-04T02:12:42;6.65;;;6.05;;
55776;SDS011;54079;44.540;18.784;2022-07-04T02:15:30;7.38;;;6.60;;
55776;SDS011;54079;44.540;18.784;2022-07-04T02:18:03;7.10;;;6.50;;
55776;SDS011;54079;44.540;18.784;2022-07-04T02:20:31;8.27;;;7.57;;
55776;SDS011;54079;44.540;18.784;2022-07-04T02:22:58;7.93;;;7.32;;
55776;SDS011;54079;44.540;18.784;2022-07-04T02:25:24;8.30;;;7.50;;
55776;SDS011;54079;44.540;18.784;2022-07-04T02:27:50;8.70;;;7.90;;
55776;SDS011;54079;44.540;18.784;2022-07-04T02:30:16;8.15;;;7.32;;
55776;SDS011;54079;44.540;18.784;2022-07-04T02:32:42;7.80;;;7.00;;
55776;SDS011;54079;44.540;18.784;2022-07-04T02:35:08;7.30;;;6.60;;
55776;SDS011;54079;44.540;18.784;2022-07-04T02:37:34;7.68;;;6.97;;
55776;SDS011;54079;44.540;18.784;2022-07-04T02:40:01;8.77;;;7.43;;
55776;SDS011;54079;44.540;18.784;2022-07-04T02:42:31;8.60;;;7.80;;
55776;SDS011;54079;44.540;18.784;2022-07-04T02:44:58;8.18;;;7.43;;
55776;SDS011;54079;44.540;18.784;2022-07-04T02:47:24;7.82;;;7.13;;
55776;SDS011;54079;44.540;18.784;2022-07-04T02:49:50;8.02;;;7.32;;
55776;SDS011;54079;44.540;18.784;2022-07-04T02:52:16;8.10;;;7.28;;
55776;SDS011;54079;44.540;18.784;2022-07-04T02:54:42;7.60;;;6.97;;
55776;SDS011;54079;44.540;18.784;2022-07-04T02:57:08;6.72;;;6.10;;
55776;SDS011;54079;44.540;18.784;2022-07-04T02:59:34;7.40;;;6.53;;
55776;SDS011;54079;44.540;18.784;2022-07-04T03:02:00;7.05;;;6.25;;
55776;SDS011;54079;44.540;18.784;2022-07-04T03:04:26;7.38;;;6.53;;
55776;SDS011;54079;44.540;18.784;2022-07-04T03:06:52;6.55;;;5.95;;
55776;SDS011;54079;44.540;18.784;2022-07-04T03:09:18;6.90;;;6.28;;
55776;SDS011;54079;44.540;18.784;2022-07-04T03:11:44;6.85;;;6.25;;
55776;SDS011;54079;44.540;18.784;2022-07-04T03:14:10;5.75;;;5.03;;
55776;SDS011;54079;44.540;18.784;2022-07-04T03:16:36;6.22;;;5.72;;
55776;SDS011;54079;44.540;18.784;2022-07-04T03:19:02;7.22;;;6.53;;
55776;SDS011;54079;44.540;18.784;2022-07-04T03:21:28;7.90;;;6.25;;
55776;SDS011;54079;44.540;18.784;2022-07-04T03:23:54;6.07;;;4.90;;
55776;SDS011;54079;44.540;18.784;2022-07-04T03:26:24;8.68;;;6.95;;
55776;SDS011;54079;44.540;18.784;2022-07-04T03:28:50;7.05;;;6.43;;
55776;SDS011;54079;44.540;18.784;2022-07-04T03:31:16;8.88;;;7.13;;
55776;SDS011;54079;44.540;18.784;2022-07-04T03:33:42;7.70;;;7.00;;
55776;SDS011;54079;44.540;18.784;2022-07-04T03:36:08;10.32;;;7.53;;
55776;SDS011;54079;44.540;18.784;2022-07-04T03:38:34;7.47;;;6.40;;
55776;SDS011;54079;44.540;18.784;2022-07-04T03:41:00;6.50;;;5.90;;
55776;SDS011;54079;44.540;18.784;2022-07-04T03:43:26;8.23;;;7.53;;
55776;SDS011;54079;44.540;18.784;2022-07-04T03:45:52;7.68;;;6.97;;
55776;SDS011;54079;44.540;18.784;2022-07-04T03:48:18;9.85;;;6.05;;
55776;SDS011;54079;44.540;18.784;2022-07-04T03:50:44;6.82;;;6.22;;
55776;SDS011;54079;44.540;18.784;2022-07-04T03:53:10;7.07;;;6.47;;
55776;SDS011;54079;44.540;18.784;2022-07-04T03:55:37;6.57;;;6.07;;
55776;SDS011;54079;44.540;18.784;2022-07-04T03:58:04;7.32;;;6.65;;
55776;SDS011;54079;44.540;18.784;2022-07-04T04:00:30;6.63;;;6.03;;
55776;SDS011;54079;44.540;18.784;2022-07-04T04:02:57;7.18;;;6.47;;
55776;SDS011;54079;44.540;18.784;2022-07-04T04:05:23;8.02;;;7.00;;
55776;SDS011;54079;44.540;18.784;2022-07-04T04:07:53;6.70;;;6.10;;
55776;SDS011;54079;44.540;18.784;2022-07-04T04:10:21;6.80;;;6.20;;
55776;SDS011;54079;44.540;18.784;2022-07-04T04:12:47;6.65;;;6.15;;
55776;SDS011;54079;44.540;18.784;2022-07-04T04:15:13;7.45;;;6.85;;
55776;SDS011;54079;44.540;18.784;2022-07-04T04:17:39;6.68;;;6.07;;
55776;SDS011;54079;44.540;18.784;2022-07-04T04:20:05;6.47;;;5.88;;
55776;SDS011;54079;44.540;18.784;2022-07-04T04:22:33;11.07;;;6.10;;
55776;SDS011;54079;44.540;18.784;2022-07-04T04:24:59;8.88;;;6.40;;
55776;SDS011;54079;44.540;18.784;2022-07-04T04:27:26;6.30;;;5.80;;
55776;SDS011;54079;44.540;18.784;2022-07-04T04:29:52;6.78;;;6.18;;
55776;SDS011;54079;44.540;18.784;2022-07-04T04:32:18;5.97;;;5.57;;
55776;SDS011;54079;44.540;18.784;2022-07-04T04:34:44;6.40;;;5.88;;
55776;SDS011;54079;44.540;18.784;2022-07-04T04:37:10;6.28;;;5.68;;
55776;SDS011;54079;44.540;18.784;2022-07-04T04:39:36;5.97;;;5.47;;
55776;SDS011;54079;44.540;18.784;2022-07-04T04:42:02;6.25;;;5.65;;
55776;SDS011;54079;44.540;18.784;2022-07-04T04:44:28;5.47;;;5.03;;
55776;SDS011;54079;44.540;18.784;2022-07-04T04:46:54;5.45;;;4.95;;
55776;SDS011;54079;44.540;18.784;2022-07-04T04:49:20;6.32;;;5.75;;
55776;SDS011;54079;44.540;18.784;2022-07-04T04:51:46;7.38;;;5.97;;
55776;SDS011;54079;44.540;18.784;2022-07-04T04:54:11;6.18;;;5.65;;
55776;SDS011;54079;44.540;18.784;2022-07-04T04:56:37;7.15;;;6.18;;
55776;SDS011;54079;44.540;18.784;2022-07-04T04:59:03;5.78;;;5.28;;
55776;SDS011;54079;44.540;18.784;2022-07-04T05:01:29;6.10;;;5.60;;
55776;SDS011;54079;44.540;18.784;2022-07-04T05:03:55;5.97;;;5.47;;
55776;SDS011;54079;44.540;18.784;2022-07-04T05:06:21;6.40;;;5.88;;
55776;SDS011;54079;44.540;18.784;2022-07-04T05:08:47;5.65;;;5.15;;
55776;SDS011;54079;44.540;18.784;2022-07-04T05:11:13;5.55;;;5.05;;
55776;SDS011;54079;44.540;18.784;2022-07-04T05:13:39;5.18;;;4.65;;
55776;SDS011;54079;44.540;18.784;2022-07-04T05:16:05;7.80;;;5.80;;
55776;SDS011;54079;44.540;18.784;2022-07-04T05:18:31;6.55;;;6.05;;
55776;SDS011;54079;44.540;18.784;2022-07-04T05:20:58;6.10;;;4.82;;
55776;SDS011;54079;44.540;18.784;2022-07-04T05:23:24;8.90;;;6.40;;
55776;SDS011;54079;44.540;18.784;2022-07-04T05:25:50;6.40;;;5.80;;
55776;SDS011;54079;44.540;18.784;2022-07-04T05:28:16;5.25;;;4.78;;
55776;SDS011;54079;44.540;18.784;2022-07-04T05:30:42;4.97;;;4.57;;
55776;SDS011;54079;44.540;18.784;2022-07-04T05:33:08;6.00;;;5.40;;
55776;SDS011;54079;44.540;18.784;2022-07-04T05:35:34;6.10;;;5.60;;
55776;SDS011;54079;44.540;18.784;2022-07-04T05:38:01;5.50;;;4.70;;
55776;SDS011;54079;44.540;18.784;2022-07-04T05:40:26;5.65;;;5.15;;
55776;SDS011;54079;44.540;18.784;2022-07-04T05:42:53;5.75;;;5.35;;
55776;SDS011;54079;44.540;18.784;2022-07-04T05:45:19;6.55;;;4.90;;
55776;SDS011;54079;44.540;18.784;2022-07-04T05:47:45;7.05;;;4.72;;
55776;SDS011;54079;44.540;18.784;2022-07-04T05:50:10;5.47;;;4.75;;
55776;SDS011;54079;44.540;18.784;2022-07-04T05:52:36;6.60;;;5.43;;
55776;SDS011;54079;44.540;18.784;2022-07-04T05:55:03;7.15;;;6.00;;
55776;SDS011;54079;44.540;18.784;2022-07-04T05:57:29;5.25;;;4.78;;
55776;SDS011;54079;44.540;18.784;2022-07-04T05:59:54;6.10;;;5.60;;
55776;SDS011;54079;44.540;18.784;2022-07-04T06:02:20;6.10;;;5.28;;
55776;SDS011;54079;44.540;18.784;2022-07-04T06:04:46;7.03;;;6.43;;
55776;SDS011;54079;44.540;18.784;2022-07-04T06:07:12;6.80;;;6.03;;
55776;SDS011;54079;44.540;18.784;2022-07-04T06:09:38;8.68;;;7.78;;
55776;SDS011;54079;44.540;18.784;2022-07-04T06:12:04;9.93;;;7.60;;
55776;SDS011;54079;44.540;18.784;2022-07-04T06:14:31;7.18;;;6.57;;
55776;SDS011;54079;44.540;18.784;2022-07-04T06:16:57;6.07;;;5.45;;
55776;SDS011;54079;44.540;18.784;2022-07-04T06:19:23;6.07;;;5.53;;
55776;SDS011;54079;44.540;18.784;2022-07-04T06:21:49;6.85;;;6.07;;
55776;SDS011;54079;44.540;18.784;2022-07-04T06:24:15;6.88;;;6.18;;
55776;SDS011;54079;44.540;18.784;2022-07-04T06:26:40;7.95;;;6.63;;
55776;SDS011;54079;44.540;18.784;2022-07-04T06:29:07;9.18;;;8.27;;
55776;SDS011;54079;44.540;18.784;2022-07-04T06:31:33;8.32;;;7.72;;
55776;SDS011;54079;44.540;18.784;2022-07-04T06:33:59;9.68;;;8.77;;
55776;SDS011;54079;44.540;18.784;2022-07-04T06:36:43;11.77;;;9.02;;
55776;SDS011;54079;44.540;18.784;2022-07-04T06:39:10;9.55;;;8.60;;
55776;SDS011;54079;44.540;18.784;2022-07-04T06:41:36;10.05;;;9.05;;
55776;SDS011;54079;44.540;18.784;2022-07-04T06:44:02;11.00;;;9.82;;
55776;SDS011;54079;44.540;18.784;2022-07-04T06:46:29;8.95;;;8.07;;
55776;SDS011;54079;44.540;18.784;2022-07-04T06:48:55;11.05;;;8.80;;
55776;SDS011;54079;44.540;18.784;2022-07-04T06:51:21;9.57;;;8.65;;
55776;SDS011;54079;44.540;18.784;2022-07-04T06:53:48;10.75;;;8.98;;
55776;SDS011;54079;44.540;18.784;2022-07-04T06:56:15;8.55;;;7.72;;
55776;SDS011;54079;44.540;18.784;2022-07-04T06:58:42;7.55;;;6.85;;
55776;SDS011;54079;44.540;18.784;2022-07-04T07:01:08;8.25;;;7.35;;
55776;SDS011;54079;44.540;18.784;2022-07-04T07:03:34;7.22;;;6.55;;
55776;SDS011;54079;44.540;18.784;2022-07-04T07:06:00;6.88;;;6.28;;
55776;SDS011;54079;44.540;18.784;2022-07-04T07:08:28;8.68;;;7.88;;
55776;SDS011;54079;44.540;18.784;2022-07-04T07:10:57;7.00;;;6.35;;
55776;SDS011;54079;44.540;18.784;2022-07-04T07:13:46;6.85;;;6.15;;
55776;SDS011;54079;44.540;18.784;2022-07-04T07:16:15;5.50;;;5.00;;
55776;SDS011;54079;44.540;18.784;2022-07-04T07:18:41;5.10;;;4.70;;
55776;SDS011;54079;44.540;18.784;2022-07-04T07:21:07;5.15;;;4.65;;
55776;SDS011;54079;44.540;18.784;2022-07-04T07:23:33;4.82;;;3.95;;
55776;SDS011;54079;44.540;18.784;2022-07-04T07:26:02;4.13;;;3.78;;
55776;SDS011;54079;44.540;18.784;2022-07-04T07:28:28;5.70;;;3.85;;
55776;SDS011;54079;44.540;18.784;2022-07-04T07:30:53;3.90;;;3.60;;
55776;SDS011;54079;44.540;18.784;2022-07-04T07:33:19;4.32;;;3.50;;
55776;SDS011;54079;44.540;18.784;2022-07-04T07:35:45;3.92;;;3.58;;
55776;SDS011;54079;44.540;18.784;2022-07-04T07:38:11;3.78;;;3.30;;
55776;SDS011;54079;44.540;18.784;2022-07-04T07:40:37;3.75;;;3.45;;
55776;SDS011;54079;44.540;18.784;2022-07-04T07:43:03;3.53;;;3.22;;
55776;SDS011;54079;44.540;18.784;2022-07-04T07:45:29;3.72;;;3.42;;
55776;SDS011;54079;44.540;18.784;2022-07-04T07:47:55;5.70;;;4.68;;
55776;SDS011;54079;44.540;18.784;2022-07-04T07:50:21;5.47;;;5.07;;
55776;SDS011;54079;44.540;18.784;2022-07-04T07:52:47;5.00;;;4.00;;
55776;SDS011;54079;44.540;18.784;2022-07-04T07:55:13;4.95;;;4.65;;
55776;SDS011;54079;44.540;18.784;2022-07-04T07:57:38;5.35;;;4.80;;
55776;SDS011;54079;44.540;18.784;2022-07-04T08:00:04;5.95;;;5.53;;
55776;SDS011;54079;44.540;18.784;2022-07-04T08:02:31;8.02;;;5.38;;
55776;SDS011;54079;44.540;18.784;2022-07-04T08:05:17;6.13;;;4.78;;
55776;SDS011;54079;44.540;18.784;2022-07-04T08:07:43;4.68;;;4.28;;
55776;SDS011;54079;44.540;18.784;2022-07-04T08:10:09;5.85;;;5.32;;
55776;SDS011;54079;44.540;18.784;2022-07-04T08:12:35;4.75;;;4.32;;
55776;SDS011;54079;44.540;18.784;2022-07-04T08:15:01;8.65;;;4.50;;
55776;SDS011;54079;44.540;18.784;2022-07-04T08:17:27;5.18;;;4.88;;
55776;SDS011;54079;44.540;18.784;2022-07-04T08:19:53;4.53;;;4.07;;
55776;SDS011;54079;44.540;18.784;2022-07-04T08:22:19;6.32;;;3.95;;
55776;SDS011;54079;44.540;18.784;2022-07-04T08:24:45;5.43;;;4.15;;
55776;SDS011;54079;44.540;18.784;2022-07-04T08:27:11;4.07;;;3.67;;
55776;SDS011;54079;44.540;18.784;2022-07-04T08:29:38;4.93;;;3.83;;
55776;SDS011;54079;44.540;18.784;2022-07-04T08:32:04;6.53;;;3.90;;
55776;SDS011;54079;44.540;18.784;2022-07-04T08:34:32;5.20;;;3.78;;
55776;SDS011;54079;44.540;18.784;2022-07-04T08:36:59;5.15;;;4.05;;
55776;SDS011;54079;44.540;18.784;2022-07-04T08:39:26;5.85;;;4.18;;
55776;SDS011;54079;44.540;18.784;2022-07-04T08:41:52;7.45;;;4.57;;
55776;SDS011;54079;44.540;18.784;2022-07-04T08:44:24;3.92;;;3.58;;
55776;SDS011;54079;44.540;18.784;2022-07-04T08:46:53;4.13;;;3.80;;
55776;SDS011;54079;44.540;18.784;2022-07-04T08:49:30;4.05;;;3.75;;
55776;SDS011;54079;44.540;18.784;2022-07-04T08:54:31;6.82;;;3.70;;
55776;SDS011;54079;44.540;18.784;2022-07-04T08:57:16;5.95;;;3.83;;
55776;SDS011;54079;44.540;18.784;2022-07-04T09:00:02;4.55;;;4.15;;
55776;SDS011;54079;44.540;18.784;2022-07-04T09:02:29;3.95;;;3.65;;
55776;SDS011;54079;44.540;18.784;2022-07-04T09:04:55;3.83;;;3.53;;
55776;SDS011;54079;44.540;18.784;2022-07-04T09:07:21;8.23;;;4.07;;
55776;SDS011;54079;44.540;18.784;2022-07-04T09:09:47;3.92;;;3.53;;
55776;SDS011;54079;44.540;18.784;2022-07-04T09:12:14;4.40;;;4.00;;
55776;SDS011;54079;44.540;18.784;2022-07-04T09:14:40;5.70;;;3.78;;
55776;SDS011;54079;44.540;18.784;2022-07-04T09:17:06;3.85;;;3.55;;
55776;SDS011;54079;44.540;18.784;2022-07-04T09:19:32;4.90;;;4.05;;
55776;SDS011;54079;44.540;18.784;2022-07-04T09:22:07;5.50;;;3.75;;
55776;SDS011;54079;44.540;18.784;2022-07-04T09:24:43;3.95;;;3.63;;
55776;SDS011;54079;44.540;18.784;2022-07-04T09:27:11;5.10;;;4.05;;
55776;SDS011;54079;44.540;18.784;2022-07-04T09:29:53;5.45;;;3.95;;
55776;SDS011;54079;44.540;18.784;2022-07-04T09:35:08;5.20;;;4.40;;
55776;SDS011;54079;44.540;18.784;2022-07-04T09:37:46;5.90;;;3.70;;
55776;SDS011;54079;44.540;18.784;2022-07-04T09:40:29;7.65;;;4.40;;
55776;SDS011;54079;44.540;18.784;2022-07-04T09:43:19;6.82;;;4.15;;
55776;SDS011;54079;44.540;18.784;2022-07-04T09:45:57;7.35;;;4.05;;
55776;SDS011;54079;44.540;18.784;2022-07-04T09:48:26;4.47;;;4.07;;
55776;SDS011;54079;44.540;18.784;2022-07-04T09:51:12;5.05;;;4.00;;
55776;SDS011;54079;44.540;18.784;2022-07-04T09:53:38;5.53;;;4.30;;
55776;SDS011;54079;44.540;18.784;2022-07-04T09:56:04;6.28;;;4.15;;
55776;SDS011;54079;44.540;18.784;2022-07-04T09:58:30;5.63;;;4.00;;
55776;SDS011;54079;44.540;18.784;2022-07-04T10:00:58;6.57;;;4.00;;
55776;SDS011;54079;44.540;18.784;2022-07-04T10:03:26;6.85;;;4.13;;
55776;SDS011;54079;44.540;18.784;2022-07-04T10:06:13;6.35;;;4.65;;
55776;SDS011;54079;44.540;18.784;2022-07-04T10:08:42;6.07;;;5.05;;
55776;SDS011;54079;44.540;18.784;2022-07-04T10:11:09;4.93;;;4.50;;
55776;SDS011;54079;44.540;18.784;2022-07-04T10:13:36;4.75;;;4.25;;
55776;SDS011;54079;44.540;18.784;2022-07-04T10:16:02;4.85;;;4.43;;
55776;SDS011;54079;44.540;18.784;2022-07-04T10:18:29;6.43;;;4.18;;
55776;SDS011;54079;44.540;18.784;2022-07-04T10:20:55;6.20;;;4.70;;
55776;SDS011;54079;44.540;18.784;2022-07-04T10:23:22;8.20;;;4.85;;
55776;SDS011;54079;44.540;18.784;2022-07-04T10:25:52;5.47;;;4.78;;
55776;SDS011;54079;44.540;18.784;2022-07-04T10:28:21;7.47;;;5.18;;
55776;SDS011;54079;44.540;18.784;2022-07-04T10:30:47;7.75;;;5.00;;
55776;SDS011;54079;44.540;18.784;2022-07-04T10:33:16;4.85;;;4.43;;
55776;SDS011;54079;44.540;18.784;2022-07-04T10:38:15;5.28;;;4.78;;
55776;SDS011;54079;44.540;18.784;2022-07-04T10:40:43;7.10;;;4.88;;
55776;SDS011;54079;44.540;18.784;2022-07-04T10:48:30;6.75;;;5.22;;
55776;SDS011;54079;44.540;18.784;2022-07-04T10:51:03;7.55;;;4.57;;
55776;SDS011;54079;44.540;18.784;2022-07-04T10:53:31;5.32;;;4.45;;
55776;SDS011;54079;44.540;18.784;2022-07-04T10:58:45;5.45;;;4.88;;
55776;SDS011;54079;44.540;18.784;2022-07-04T11:01:15;4.60;;;4.13;;
55776;SDS011;54079;44.540;18.784;2022-07-04T11:03:53;5.63;;;4.57;;
55776;SDS011;54079;44.540;18.784;2022-07-04T11:11:48;6.95;;;5.25;;
55776;SDS011;54079;44.540;18.784;2022-07-04T11:14:37;7.38;;;5.28;;
55776;SDS011;54079;44.540;18.784;2022-07-04T11:17:13;5.22;;;4.78;;
55776;SDS011;54079;44.540;18.784;2022-07-04T11:19:40;9.70;;;5.05;;
55776;SDS011;54079;44.540;18.784;2022-07-04T11:22:08;6.72;;;5.20;;
55776;SDS011;54079;44.540;18.784;2022-07-04T11:24:35;6.63;;;5.20;;
55776;SDS011;54079;44.540;18.784;2022-07-04T11:27:03;6.60;;;5.70;;
55776;SDS011;54079;44.540;18.784;2022-07-04T11:29:31;5.20;;;4.68;;
55776;SDS011;54079;44.540;18.784;2022-07-04T11:31:59;6.65;;;4.47;;
55776;SDS011;54079;44.540;18.784;2022-07-04T11:34:30;8.82;;;6.55;;
55776;SDS011;54079;44.540;18.784;2022-07-04T11:36:58;6.40;;;5.80;;
55776;SDS011;54079;44.540;18.784;2022-07-04T11:39:26;6.30;;;5.70;;
55776;SDS011;54079;44.540;18.784;2022-07-04T11:41:52;6.28;;;5.30;;
55776;SDS011;54079;44.540;18.784;2022-07-04T11:44:37;7.75;;;6.60;;
55776;SDS011;54079;44.540;18.784;2022-07-04T11:47:23;6.80;;;6.18;;
55776;SDS011;54079;44.540;18.784;2022-07-04T11:49:56;8.18;;;7.47;;
55776;SDS011;54079;44.540;18.784;2022-07-04T11:52:28;6.55;;;5.97;;
55776;SDS011;54079;44.540;18.784;2022-07-04T11:54:56;6.43;;;5.93;;
55776;SDS011;54079;44.540;18.784;2022-07-04T11:57:26;7.70;;;7.00;;
55776;SDS011;54079;44.540;18.784;2022-07-04T12:02:25;8.45;;;6.90;;
55776;SDS011;54079;44.540;18.784;2022-07-04T12:04:52;8.10;;;7.15;;
55776;SDS011;54079;44.540;18.784;2022-07-04T12:07:19;8.02;;;7.30;;
55776;SDS011;54079;44.540;18.784;2022-07-04T12:09:47;7.43;;;6.72;;
55776;SDS011;54079;44.540;18.784;2022-07-04T12:12:13;10.18;;;8.13;;
55776;SDS011;54079;44.540;18.784;2022-07-04T12:14:56;10.05;;;9.25;;
55776;SDS011;54079;44.540;18.784;2022-07-04T12:17:28;10.25;;;9.35;;
55776;SDS011;54079;44.540;18.784;2022-07-04T12:19:56;10.98;;;10.13;;
55776;SDS011;54079;44.540;18.784;2022-07-04T12:22:36;9.05;;;8.20;;
55776;SDS011;54079;44.540;18.784;2022-07-04T12:25:08;8.45;;;7.68;;
55776;SDS011;54079;44.540;18.784;2022-07-04T12:28:05;9.93;;;8.98;;
55776;SDS011;54079;44.540;18.784;2022-07-04T12:30:35;10.43;;;9.45;;
55776;SDS011;54079;44.540;18.784;2022-07-04T12:35:33;13.20;;;12.10;;
55776;SDS011;54079;44.540;18.784;2022-07-04T12:40:31;13.48;;;10.43;;
55776;SDS011;54079;44.540;18.784;2022-07-04T12:42:58;11.98;;;10.88;;
55776;SDS011;54079;44.540;18.784;2022-07-04T12:45:25;12.73;;;11.73;;
55776;SDS011;54079;44.540;18.784;2022-07-04T12:47:51;12.52;;;11.15;;
55776;SDS011;54079;44.540;18.784;2022-07-04T12:50:26;13.52;;;12.20;;
55776;SDS011;54079;44.540;18.784;2022-07-04T12:52:52;10.48;;;9.60;;
55776;SDS011;54079;44.540;18.784;2022-07-04T12:55:18;10.55;;;9.55;;
55776;SDS011;54079;44.540;18.784;2022-07-04T12:57:44;8.60;;;7.95;;
55776;SDS011;54079;44.540;18.784;2022-07-04T13:00:10;9.45;;;8.75;;
55776;SDS011;54079;44.540;18.784;2022-07-04T13:02:37;10.32;;;8.75;;
55776;SDS011;54079;44.540;18.784;2022-07-04T13:05:04;9.25;;;8.55;;
55776;SDS011;54079;44.540;18.784;2022-07-04T13:07:30;7.82;;;7.03;;
55776;SDS011;54079;44.540;18.784;2022-07-04T13:09:55;8.32;;;7.35;;
55776;SDS011;54079;44.540;18.784;2022-07-04T13:12:21;7.57;;;7.00;;
55776;SDS011;54079;44.540;18.784;2022-07-04T13:14:52;10.17;;;7.17;;
55776;SDS011;54079;44.540;18.784;2022-07-04T13:17:19;7.72;;;7.03;;
55776;SDS011;54079;44.540;18.784;2022-07-04T13:19:45;6.75;;;6.25;;
55776;SDS011;54079;44.540;18.784;2022-07-04T13:22:11;8.05;;;6.50;;
55776;SDS011;54079;44.540;18.784;2022-07-04T13:24:37;7.45;;;6.55;;
55776;SDS011;54079;44.540;18.784;2022-07-04T13:27:04;6.10;;;5.70;;
55776;SDS011;54079;44.540;18.784;2022-07-04T13:29:30;6.65;;;5.63;;
55776;SDS011;54079;44.540;18.784;2022-07-04T13:31:56;5.30;;;4.90;;
55776;SDS011;54079;44.540;18.784;2022-07-04T13:34:22;6.22;;;5.68;;
55776;SDS011;54079;44.540;18.784;2022-07-04T13:36:48;10.32;;;5.88;;
55776;SDS011;54079;44.540;18.784;2022-07-04T13:39:16;7.10;;;5.38;;
55776;SDS011;54079;44.540;18.784;2022-07-04T13:41:42;5.95;;;5.35;;
55776;SDS011;54079;44.540;18.784;2022-07-04T13:44:08;5.90;;;5.40;;
55776;SDS011;54079;44.540;18.784;2022-07-04T13:46:34;6.05;;;5.45;;
55776;SDS011;54079;44.540;18.784;2022-07-04T13:49:02;7.50;;;5.13;;
55776;SDS011;54079;44.540;18.784;2022-07-04T13:51:29;5.72;;;5.10;;
55776;SDS011;54079;44.540;18.784;2022-07-04T13:53:55;6.45;;;5.85;;
55776;SDS011;54079;44.540;18.784;2022-07-04T13:56:21;7.28;;;5.57;;
55776;SDS011;54079;44.540;18.784;2022-07-04T13:58:47;9.35;;;6.93;;
55776;SDS011;54079;44.540;18.784;2022-07-04T14:01:14;5.25;;;4.85;;
55776;SDS011;54079;44.540;18.784;2022-07-04T14:03:43;7.53;;;5.55;;
55776;SDS011;54079;44.540;18.784;2022-07-04T14:06:09;6.35;;;5.30;;
55776;SDS011;54079;44.540;18.784;2022-07-04T14:08:35;5.25;;;4.85;;
55776;SDS011;54079;44.540;18.784;2022-07-04T14:11:01;7.63;;;5.05;;
55776;SDS011;54079;44.540;18.784;2022-07-04T14:13:27;7.13;;;5.40;;
55776;SDS011;54079;44.540;18.784;2022-07-04T14:15:53;8.82;;;4.85;;
55776;SDS011;54079;44.540;18.784;2022-07-04T14:18:20;5.63;;;4.90;;
55776;SDS011;54079;44.540;18.784;2022-07-04T14:20:46;6.50;;;5.88;;
55776;SDS011;54079;44.540;18.784;2022-07-04T14:23:12;6.57;;;5.90;;
55776;SDS011;54079;44.540;18.784;2022-07-04T14:25:38;7.30;;;4.90;;
55776;SDS011;54079;44.540;18.784;2022-07-04T14:28:04;6.20;;;5.00;;
55776;SDS011;54079;44.540;18.784;2022-07-04T14:30:30;7.35;;;5.40;;
55776;SDS011;54079;44.540;18.784;2022-07-04T14:32:56;8.70;;;5.43;;
55776;SDS011;54079;44.540;18.784;2022-07-04T14:35:22;7.57;;;5.35;;
55776;SDS011;54079;44.540;18.784;2022-07-04T14:37:48;5.65;;;5.15;;
55776;SDS011;54079;44.540;18.784;2022-07-04T14:40:14;6.05;;;5.47;;
55776;SDS011;54079;44.540;18.784;2022-07-04T14:42:42;5.45;;;4.88;;
55776;SDS011;54079;44.540;18.784;2022-07-04T14:45:09;4.68;;;4.30;;
55776;SDS011;54079;44.540;18.784;2022-07-04T14:47:35;4.90;;;4.50;;
55776;SDS011;54079;44.540;18.784;2022-07-04T14:50:01;6.07;;;5.07;;
55776;SDS011;54079;44.540;18.784;2022-07-04T14:52:27;5.15;;;4.75;;
55776;SDS011;54079;44.540;18.784;2022-07-04T14:54:54;8.00;;;5.72;;
55776;SDS011;54079;44.540;18.784;2022-07-04T14:57:20;6.82;;;5.65;;
55776;SDS011;54079;44.540;18.784;2022-07-04T14:59:46;5.05;;;4.50;;
55776;SDS011;54079;44.540;18.784;2022-07-04T15:02:12;4.60;;;4.20;;
55776;SDS011;54079;44.540;18.784;2022-07-04T15:04:37;6.00;;;4.95;;